Terminal Aerodrome Forecast
Issued by NWS

Home | Current Version | Previous Version | Text Only | Print | Product List | Glossary On
Versions: 1 2 3 4 5 6 7 8 9 10 11 12 13
000
FTUS45 KBOI 252328
TAFMYL
TAF
KMYL 252328Z 2600/2624 31008KT P6SM -SHRA BKN060 OVC100
     FM260400 36007KT P6SM -SHRA BKN040
     FM261500 35008KT P6SM BKN050
     FM262000 33009KT P6SM VCSH BKN050=

USA.gov is the U.S. government's official web portal to all federal, state and local government web resources and services.